N74MA SEGU-SCAR
Flight info
| Callsign | N74MA |
|---|---|
| Flight time | 4h 5m |
| Altitude | 29000 |
| Route | EVRED2A EVRED UL780 TRU UV1 JCL DCT SCO UT224 ILO DCT ARI |
| Aircraft | TBM8/L-SDFGHIRWZ/SB2 |
Departure
| Time | 2026-04-21 17:53 |
|---|---|
| Airport | José Joaquín de Olmedo International Airport (SEGU) |
Arrival
| Time | 2026-04-21 21:58 |
|---|---|
| Airport | Chacalluta International Airport (SCAR) |
| Time | Latitude | Longitude | Altitude | Speed | Heading |
|---|---|---|---|---|---|
| 2026-04-21 17:41 | -2.15709 | -79.88545 | 23 ft | 0 kts | 300° |
| 2026-04-21 17:46 | -2.15707 | -79.88547 | 26 ft | 3 kts | 314° |
| 2026-04-21 17:47 | -2.15696 | -79.88543 | 26 ft | 3 kts | 87° |
| 2026-04-21 17:47 | -2.15729 | -79.88500 | 25 ft | 13 kts | 106° |
| 2026-04-21 17:47 | -2.15656 | -79.88425 | 22 ft | 20 kts | 31° |
| 2026-04-21 17:47 | -2.15526 | -79.88350 | 22 ft | 21 kts | 29° |
| 2026-04-21 17:48 | -2.15408 | -79.88283 | 22 ft | 18 kts | 29° |
| 2026-04-21 17:48 | -2.15311 | -79.88226 | 23 ft | 15 kts | 28° |
| 2026-04-21 17:48 | -2.15232 | -79.88254 | 23 ft | 12 kts | 351° |
| 2026-04-21 17:48 | -2.15154 | -79.88216 | 23 ft | 13 kts | 31° |
| 2026-04-21 17:49 | -2.15064 | -79.88163 | 23 ft | 17 kts | 31° |
| 2026-04-21 17:49 | -2.14941 | -79.88095 | 25 ft | 21 kts | 30° |
| 2026-04-21 17:49 | -2.14824 | -79.88026 | 23 ft | 14 kts | 30° |
| 2026-04-21 17:49 | -2.14758 | -79.87992 | 26 ft | 11 kts | 30° |
| 2026-04-21 17:50 | -2.14665 | -79.87929 | 23 ft | 18 kts | 50° |
| 2026-04-21 17:50 | -2.14631 | -79.87808 | 23 ft | 14 kts | 80° |
| 2026-04-21 17:50 | -2.14643 | -79.87756 | 23 ft | 8 kts | 132° |
| 2026-04-21 17:50 | -2.14679 | -79.87753 | 22 ft | 0 kts | 210° |
| 2026-04-21 17:52 | -2.14784 | -79.87813 | 22 ft | 43 kts | 210° |
| 2026-04-21 17:52 | -2.15197 | -79.88052 | 25 ft | 91 kts | 210° |
| 2026-04-21 17:52 | -2.15840 | -79.88440 | 177 ft | 115 kts | 207° |
| 2026-04-21 17:52 | -2.16603 | -79.88894 | 414 ft | 135 kts | 207° |
| 2026-04-21 17:53 | -2.17462 | -79.89354 | 924 ft | 134 kts | 209° |
| 2026-04-21 17:53 | -2.18291 | -79.89821 | 1391 ft | 135 kts | 210° |
| 2026-04-21 17:53 | -2.19119 | -79.90290 | 1862 ft | 136 kts | 211° |
| 2026-04-21 17:53 | -2.20069 | -79.90657 | 2338 ft | 138 kts | 178° |
| 2026-04-21 17:54 | -2.21001 | -79.90440 | 2801 ft | 138 kts | 168° |
| 2026-04-21 17:54 | -2.21949 | -79.90260 | 3250 ft | 139 kts | 169° |
| 2026-04-21 17:54 | -2.22904 | -79.90060 | 3681 ft | 141 kts | 169° |
| 2026-04-21 17:54 | -2.23879 | -79.89855 | 4113 ft | 142 kts | 167° |
| 2026-04-21 17:55 | -2.24841 | -79.89620 | 4541 ft | 143 kts | 166° |
| 2026-04-21 17:55 | -2.25836 | -79.89403 | 4986 ft | 144 kts | 167° |
| 2026-04-21 17:55 | -2.26504 | -79.89267 | 5272 ft | 145 kts | 167° |
| 2026-04-21 17:55 | -2.27501 | -79.89064 | 5692 ft | 146 kts | 167° |
| 2026-04-21 17:56 | -2.28504 | -79.88857 | 6109 ft | 147 kts | 167° |
| 2026-04-21 17:56 | -2.29516 | -79.88647 | 6503 ft | 147 kts | 167° |
| 2026-04-21 17:56 | -2.30527 | -79.88434 | 6879 ft | 149 kts | 167° |
| 2026-04-21 17:56 | -2.31531 | -79.88225 | 7237 ft | 150 kts | 167° |
| 2026-04-21 17:57 | -2.32573 | -79.88007 | 7616 ft | 151 kts | 167° |
| 2026-04-21 17:57 | -2.33609 | -79.87789 | 7986 ft | 152 kts | 167° |
| 2026-04-21 17:57 | -2.34664 | -79.87567 | 8383 ft | 153 kts | 167° |
| 2026-04-21 17:57 | -2.35694 | -79.87352 | 8744 ft | 155 kts | 167° |
| 2026-04-21 17:58 | -2.36789 | -79.87123 | 9126 ft | 156 kts | 167° |
| 2026-04-21 17:58 | -2.37857 | -79.86899 | 9507 ft | 157 kts | 167° |
| 2026-04-21 17:58 | -2.38931 | -79.86673 | 9870 ft | 159 kts | 167° |
| 2026-04-21 17:58 | -2.40019 | -79.86445 | 10208 ft | 160 kts | 167° |
| 2026-04-21 17:59 | -2.41093 | -79.86220 | 10540 ft | 160 kts | 168° |
| 2026-04-21 17:59 | -2.42192 | -79.85989 | 10876 ft | 161 kts | 168° |
| 2026-04-21 17:59 | -2.43284 | -79.85761 | 11216 ft | 162 kts | 168° |
| 2026-04-21 17:59 | -2.44413 | -79.85524 | 11555 ft | 163 kts | 168° |
| 2026-04-21 18:00 | -2.45526 | -79.85290 | 11896 ft | 164 kts | 168° |
| 2026-04-21 18:00 | -2.46642 | -79.85056 | 12230 ft | 164 kts | 169° |
| 2026-04-21 18:00 | -2.47765 | -79.84820 | 12574 ft | 165 kts | 169° |
| 2026-04-21 18:00 | -2.48893 | -79.84583 | 12912 ft | 166 kts | 169° |
| 2026-04-21 18:01 | -2.50042 | -79.84343 | 13249 ft | 167 kts | 169° |
| 2026-04-21 18:01 | -2.51190 | -79.84102 | 13591 ft | 168 kts | 169° |
| 2026-04-21 18:01 | -2.52335 | -79.83862 | 13915 ft | 169 kts | 170° |
| 2026-04-21 18:01 | -2.53500 | -79.83618 | 14222 ft | 169 kts | 170° |
| 2026-04-21 18:02 | -2.54656 | -79.83375 | 14520 ft | 170 kts | 170° |
| 2026-04-21 18:02 | -2.55819 | -79.83130 | 14824 ft | 171 kts | 170° |
| 2026-04-21 18:02 | -2.57000 | -79.82881 | 15139 ft | 171 kts | 171° |
| 2026-04-21 18:02 | -2.58173 | -79.82636 | 15438 ft | 172 kts | 171° |
| 2026-04-21 18:03 | -2.59348 | -79.82390 | 15740 ft | 173 kts | 171° |
| 2026-04-21 18:03 | -2.60541 | -79.82140 | 16036 ft | 174 kts | 171° |
| 2026-04-21 18:03 | -2.61728 | -79.81891 | 16337 ft | 174 kts | 171° |
| 2026-04-21 18:03 | -2.62922 | -79.81640 | 16636 ft | 175 kts | 171° |
| 2026-04-21 18:04 | -2.64120 | -79.81390 | 16927 ft | 176 kts | 172° |
| 2026-04-21 18:04 | -2.65318 | -79.81138 | 17230 ft | 177 kts | 172° |
| 2026-04-21 18:04 | -2.66525 | -79.80885 | 17530 ft | 177 kts | 172° |
| 2026-04-21 18:04 | -2.67738 | -79.80631 | 17827 ft | 178 kts | 172° |
| 2026-04-21 18:05 | -2.68955 | -79.80376 | 18128 ft | 179 kts | 172° |
| 2026-04-21 18:05 | -2.70178 | -79.80119 | 18400 ft | 180 kts | 172° |
| 2026-04-21 18:05 | -2.71402 | -79.79862 | 18642 ft | 180 kts | 172° |
| 2026-04-21 18:05 | -2.72671 | -79.79596 | 18903 ft | 181 kts | 172° |
| 2026-04-21 18:06 | -2.73911 | -79.79336 | 19161 ft | 182 kts | 171° |
| 2026-04-21 18:06 | -2.75151 | -79.79075 | 19408 ft | 183 kts | 171° |
| 2026-04-21 18:06 | -2.76417 | -79.78810 | 19659 ft | 183 kts | 171° |
| 2026-04-21 18:06 | -2.77668 | -79.78547 | 19910 ft | 184 kts | 170° |
| 2026-04-21 18:07 | -2.78924 | -79.78282 | 20165 ft | 185 kts | 170° |
| 2026-04-21 18:07 | -2.80186 | -79.78044 | 20440 ft | 185 kts | 175° |
| 2026-04-21 18:07 | -2.81389 | -79.77906 | 20674 ft | 185 kts | 174° |
| 2026-04-21 18:07 | -2.82320 | -79.77782 | 20871 ft | 186 kts | 174° |
| 2026-04-21 18:08 | -2.83623 | -79.77612 | 21154 ft | 187 kts | 174° |
| 2026-04-21 18:08 | -2.84963 | -79.77442 | 21409 ft | 188 kts | 174° |
| 2026-04-21 18:08 | -2.86262 | -79.77276 | 21663 ft | 188 kts | 174° |
| 2026-04-21 18:08 | -2.87561 | -79.77110 | 21906 ft | 189 kts | 173° |
| 2026-04-21 18:09 | -2.88866 | -79.76941 | 22153 ft | 189 kts | 173° |
| 2026-04-21 18:09 | -2.90178 | -79.76774 | 22395 ft | 190 kts | 173° |
| 2026-04-21 18:09 | -2.91517 | -79.76603 | 22634 ft | 191 kts | 172° |
| 2026-04-21 18:09 | -2.92821 | -79.76437 | 22878 ft | 191 kts | 172° |
| 2026-04-21 18:10 | -2.94164 | -79.76265 | 23110 ft | 192 kts | 172° |
| 2026-04-21 18:10 | -2.95489 | -79.76095 | 23337 ft | 193 kts | 172° |
| 2026-04-21 18:10 | -2.96820 | -79.75925 | 23572 ft | 194 kts | 171° |
| 2026-04-21 18:10 | -2.98166 | -79.75753 | 23772 ft | 194 kts | 171° |
| 2026-04-21 18:11 | -2.99509 | -79.75581 | 23960 ft | 195 kts | 171° |
| 2026-04-21 18:11 | -3.00856 | -79.75409 | 24140 ft | 196 kts | 171° |
| 2026-04-21 18:11 | -3.02113 | -79.75247 | 24315 ft | 196 kts | 171° |
| 2026-04-21 18:11 | -3.03472 | -79.75073 | 24496 ft | 197 kts | 171° |
| 2026-04-21 18:12 | -3.04833 | -79.74900 | 24674 ft | 197 kts | 171° |
| 2026-04-21 18:12 | -3.06198 | -79.74726 | 24862 ft | 198 kts | 171° |
| 2026-04-21 18:12 | -3.07567 | -79.74549 | 25035 ft | 199 kts | 171° |
| 2026-04-21 18:12 | -3.08942 | -79.74375 | 25225 ft | 199 kts | 171° |
| 2026-04-21 18:13 | -3.10320 | -79.74198 | 25408 ft | 200 kts | 171° |
| 2026-04-21 18:13 | -3.11701 | -79.74021 | 25594 ft | 200 kts | 171° |
| 2026-04-21 18:13 | -3.13086 | -79.73843 | 25789 ft | 201 kts | 171° |
| 2026-04-21 18:13 | -3.14477 | -79.73665 | 25956 ft | 202 kts | 171° |
| 2026-04-21 18:14 | -3.17274 | -79.73307 | 26314 ft | 203 kts | 171° |
| 2026-04-21 18:14 | -3.18676 | -79.73127 | 26488 ft | 204 kts | 171° |
| 2026-04-21 18:14 | -3.20086 | -79.72947 | 26644 ft | 205 kts | 171° |
| 2026-04-21 18:15 | -3.21499 | -79.72766 | 26808 ft | 205 kts | 171° |
| 2026-04-21 18:15 | -3.22917 | -79.72583 | 26968 ft | 206 kts | 171° |
| 2026-04-21 18:15 | -3.24341 | -79.72402 | 27128 ft | 206 kts | 171° |
| 2026-04-21 18:15 | -3.25768 | -79.72219 | 27298 ft | 207 kts | 171° |
| 2026-04-21 18:16 | -3.27198 | -79.72036 | 27461 ft | 207 kts | 171° |
| 2026-04-21 18:16 | -3.28630 | -79.71853 | 27612 ft | 208 kts | 171° |
| 2026-04-21 18:16 | -3.30075 | -79.71668 | 27765 ft | 209 kts | 171° |
| 2026-04-21 18:16 | -3.31520 | -79.71483 | 27925 ft | 209 kts | 171° |
| 2026-04-21 18:17 | -3.32968 | -79.71297 | 28084 ft | 210 kts | 171° |
| 2026-04-21 18:17 | -3.34418 | -79.71110 | 28243 ft | 210 kts | 171° |
| 2026-04-21 18:17 | -3.35873 | -79.70924 | 28397 ft | 211 kts | 171° |
| 2026-04-21 18:17 | -3.37331 | -79.70738 | 28547 ft | 212 kts | 171° |
| 2026-04-21 18:18 | -3.38799 | -79.70550 | 28706 ft | 212 kts | 171° |
| 2026-04-21 18:18 | -3.40277 | -79.70360 | 28870 ft | 213 kts | 171° |
| 2026-04-21 18:18 | -3.41803 | -79.70165 | 29010 ft | 216 kts | 171° |
| 2026-04-21 18:18 | -3.43347 | -79.69968 | 29014 ft | 225 kts | 171° |
| 2026-04-21 18:19 | -3.44926 | -79.69769 | 29024 ft | 232 kts | 171° |
| 2026-04-21 18:19 | -3.46551 | -79.69561 | 29027 ft | 240 kts | 171° |
| 2026-04-21 18:19 | -3.48231 | -79.69346 | 29030 ft | 246 kts | 171° |
| 2026-04-21 18:19 | -3.49954 | -79.69124 | 29030 ft | 253 kts | 171° |
| 2026-04-21 18:20 | -3.51719 | -79.68898 | 29040 ft | 258 kts | 172° |
| 2026-04-21 18:20 | -3.53527 | -79.68666 | 29046 ft | 264 kts | 172° |
| 2026-04-21 18:20 | -3.55365 | -79.68431 | 29052 ft | 269 kts | 172° |
| 2026-04-21 18:20 | -3.57238 | -79.68191 | 29056 ft | 273 kts | 172° |
| 2026-04-21 18:21 | -3.59137 | -79.67948 | 29067 ft | 277 kts | 172° |
| 2026-04-21 18:21 | -3.61062 | -79.67702 | 29076 ft | 281 kts | 172° |
| 2026-04-21 18:21 | -3.63013 | -79.67452 | 29088 ft | 284 kts | 172° |
| 2026-04-21 18:21 | -3.64988 | -79.67199 | 29086 ft | 287 kts | 172° |
| 2026-04-21 18:22 | -3.66977 | -79.66944 | 29087 ft | 290 kts | 172° |
| 2026-04-21 18:22 | -3.68982 | -79.66686 | 29090 ft | 291 kts | 172° |
| 2026-04-21 18:22 | -3.70997 | -79.66428 | 29089 ft | 293 kts | 172° |
| 2026-04-21 18:22 | -3.73023 | -79.66168 | 29093 ft | 294 kts | 172° |
| 2026-04-21 18:23 | -3.75056 | -79.65908 | 29090 ft | 295 kts | 172° |
| 2026-04-21 18:23 | -3.77095 | -79.65646 | 29094 ft | 296 kts | 172° |
| 2026-04-21 18:23 | -3.79169 | -79.65381 | 29100 ft | 297 kts | 172° |
| 2026-04-21 18:23 | -3.81227 | -79.65118 | 29102 ft | 298 kts | 172° |
| 2026-04-21 18:24 | -3.83284 | -79.64853 | 29112 ft | 299 kts | 172° |
| 2026-04-21 18:24 | -3.85348 | -79.64588 | 29113 ft | 299 kts | 172° |
| 2026-04-21 18:24 | -3.87446 | -79.64321 | 29114 ft | 300 kts | 172° |
| 2026-04-21 18:24 | -3.89517 | -79.64055 | 29119 ft | 300 kts | 172° |
| 2026-04-21 18:25 | -3.91590 | -79.63788 | 29120 ft | 301 kts | 172° |
| 2026-04-21 18:25 | -3.95751 | -79.63255 | 29128 ft | 302 kts | 172° |
| 2026-04-21 18:26 | -3.99924 | -79.62719 | 29129 ft | 302 kts | 172° |
| 2026-04-21 18:26 | -4.04096 | -79.62185 | 29132 ft | 303 kts | 172° |
| 2026-04-21 18:27 | -4.08291 | -79.61645 | 29127 ft | 303 kts | 172° |
| 2026-04-21 18:27 | -4.12470 | -79.61111 | 29129 ft | 304 kts | 172° |
| 2026-04-21 18:28 | -4.15987 | -79.60658 | 29125 ft | 304 kts | 172° |
| 2026-04-21 18:28 | -4.20200 | -79.60119 | 29120 ft | 305 kts | 172° |
| 2026-04-21 18:29 | -4.24445 | -79.59573 | 29123 ft | 306 kts | 172° |
| 2026-04-21 18:29 | -4.28696 | -79.59028 | 29118 ft | 306 kts | 172° |
| 2026-04-21 18:30 | -4.32926 | -79.58483 | 29120 ft | 307 kts | 172° |
| 2026-04-21 18:30 | -4.37161 | -79.57941 | 29118 ft | 307 kts | 171° |
| 2026-04-21 18:31 | -4.41417 | -79.57395 | 29129 ft | 307 kts | 172° |
| 2026-04-21 18:31 | -4.45682 | -79.56846 | 29134 ft | 307 kts | 171° |
| 2026-04-21 18:32 | -4.49930 | -79.56300 | 29136 ft | 308 kts | 171° |
| 2026-04-21 18:32 | -4.54183 | -79.55765 | 29143 ft | 309 kts | 172° |
| 2026-04-21 18:33 | -4.58459 | -79.55234 | 29145 ft | 309 kts | 172° |
| 2026-04-21 18:33 | -4.62738 | -79.54700 | 29141 ft | 310 kts | 171° |
| 2026-04-21 18:34 | -4.67032 | -79.54163 | 29145 ft | 311 kts | 172° |
| 2026-04-21 18:34 | -4.71325 | -79.53628 | 29148 ft | 310 kts | 172° |
| 2026-04-21 18:35 | -4.74899 | -79.53181 | 29151 ft | 310 kts | 172° |
| 2026-04-21 18:35 | -4.79899 | -79.52556 | 29157 ft | 309 kts | 172° |
| 2026-04-21 18:36 | -4.84167 | -79.52026 | 29159 ft | 308 kts | 172° |
| 2026-04-21 18:36 | -4.88435 | -79.51490 | 29153 ft | 308 kts | 172° |
| 2026-04-21 18:37 | -4.92693 | -79.50960 | 29155 ft | 307 kts | 173° |
| 2026-04-21 18:37 | -4.96966 | -79.50426 | 29156 ft | 306 kts | 173° |
| 2026-04-21 18:38 | -5.01199 | -79.49897 | 29153 ft | 306 kts | 173° |
| 2026-04-21 18:38 | -5.05418 | -79.49369 | 29147 ft | 305 kts | 173° |
| 2026-04-21 18:39 | -5.09531 | -79.48430 | 29138 ft | 304 kts | 160° |
| 2026-04-21 18:39 | -5.11598 | -79.48060 | 29141 ft | 303 kts | 178° |
| 2026-04-21 18:39 | -5.13689 | -79.48042 | 29144 ft | 303 kts | 179° |
| 2026-04-21 18:40 | -5.17917 | -79.47606 | 29144 ft | 302 kts | 171° |
| 2026-04-21 18:40 | -5.21403 | -79.47122 | 29144 ft | 302 kts | 174° |
| 2026-04-21 18:41 | -5.26279 | -79.46543 | 29141 ft | 301 kts | 173° |
| 2026-04-21 18:41 | -5.30437 | -79.46019 | 29140 ft | 301 kts | 173° |
| 2026-04-21 18:42 | -5.34592 | -79.45505 | 29138 ft | 300 kts | 173° |
| 2026-04-21 18:42 | -5.36667 | -79.45247 | 29134 ft | 300 kts | 173° |
| 2026-04-21 18:42 | -5.38743 | -79.44989 | 29131 ft | 300 kts | 173° |
| 2026-04-21 18:42 | -5.40815 | -79.44731 | 29128 ft | 300 kts | 174° |
| 2026-04-21 18:43 | -5.42885 | -79.44475 | 29128 ft | 300 kts | 174° |
| 2026-04-21 18:43 | -5.44957 | -79.44216 | 29123 ft | 300 kts | 173° |
| 2026-04-21 18:43 | -5.47030 | -79.43957 | 29122 ft | 300 kts | 173° |
| 2026-04-21 18:43 | -5.49103 | -79.43701 | 29122 ft | 300 kts | 173° |
| 2026-04-21 18:44 | -5.51177 | -79.43444 | 29121 ft | 300 kts | 173° |
| 2026-04-21 18:44 | -5.53250 | -79.43185 | 29116 ft | 300 kts | 173° |
| 2026-04-21 18:44 | -5.55322 | -79.42927 | 29116 ft | 300 kts | 173° |
| 2026-04-21 18:44 | -5.57396 | -79.42670 | 29115 ft | 300 kts | 173° |
| 2026-04-21 18:45 | -5.59465 | -79.42413 | 29110 ft | 300 kts | 173° |
| 2026-04-21 18:45 | -5.61541 | -79.42154 | 29112 ft | 300 kts | 173° |
| 2026-04-21 18:45 | -5.63610 | -79.41897 | 29107 ft | 300 kts | 173° |
| 2026-04-21 18:45 | -5.65682 | -79.41638 | 29111 ft | 300 kts | 173° |
| 2026-04-21 18:46 | -5.67759 | -79.41380 | 29104 ft | 300 kts | 173° |
| 2026-04-21 18:46 | -5.69836 | -79.41122 | 29102 ft | 300 kts | 173° |
| 2026-04-21 18:46 | -5.71913 | -79.40864 | 29101 ft | 300 kts | 173° |
| 2026-04-21 18:46 | -5.73983 | -79.40606 | 29101 ft | 300 kts | 173° |
| 2026-04-21 18:47 | -5.76057 | -79.40348 | 29099 ft | 300 kts | 173° |
| 2026-04-21 18:47 | -5.77430 | -79.40177 | 29100 ft | 300 kts | 173° |
| 2026-04-21 18:47 | -5.79538 | -79.39915 | 29095 ft | 300 kts | 173° |
| 2026-04-21 18:47 | -5.81641 | -79.39653 | 29097 ft | 300 kts | 173° |
| 2026-04-21 18:48 | -5.83713 | -79.39395 | 29095 ft | 300 kts | 173° |
| 2026-04-21 18:48 | -5.85791 | -79.39136 | 29094 ft | 300 kts | 173° |
| 2026-04-21 18:48 | -5.87867 | -79.38878 | 29095 ft | 300 kts | 173° |
| 2026-04-21 18:48 | -5.89939 | -79.38620 | 29093 ft | 300 kts | 173° |
| 2026-04-21 18:49 | -5.92012 | -79.38362 | 29093 ft | 300 kts | 173° |
| 2026-04-21 18:49 | -5.94062 | -79.38106 | 29094 ft | 300 kts | 173° |
| 2026-04-21 18:49 | -5.95469 | -79.37931 | 29091 ft | 300 kts | 173° |
| 2026-04-21 18:50 | -6.00323 | -79.37327 | 29092 ft | 301 kts | 173° |
| 2026-04-21 18:50 | -6.04480 | -79.36809 | 29091 ft | 301 kts | 173° |
| 2026-04-21 18:51 | -6.08635 | -79.36291 | 29090 ft | 301 kts | 173° |
| 2026-04-21 18:51 | -6.12827 | -79.35769 | 29090 ft | 301 kts | 173° |
| 2026-04-21 18:52 | -6.17021 | -79.35246 | 29089 ft | 302 kts | 173° |
| 2026-04-21 18:52 | -6.21217 | -79.34722 | 29084 ft | 302 kts | 173° |
| 2026-04-21 18:53 | -6.25393 | -79.34203 | 29086 ft | 302 kts | 173° |
| 2026-04-21 18:53 | -6.29565 | -79.33683 | 29085 ft | 302 kts | 173° |
| 2026-04-21 18:54 | -6.33778 | -79.33156 | 29081 ft | 303 kts | 173° |
| 2026-04-21 18:54 | -6.37993 | -79.32631 | 29075 ft | 303 kts | 173° |
| 2026-04-21 18:55 | -6.41501 | -79.32193 | 29075 ft | 303 kts | 172° |
| 2026-04-21 18:55 | -6.46463 | -79.31574 | 29069 ft | 303 kts | 172° |
| 2026-04-21 18:56 | -6.50658 | -79.31050 | 29069 ft | 304 kts | 172° |
| 2026-04-21 18:56 | -6.54880 | -79.30522 | 29066 ft | 304 kts | 172° |
| 2026-04-21 18:57 | -6.59081 | -79.29998 | 29061 ft | 304 kts | 172° |
| 2026-04-21 18:57 | -6.63312 | -79.29470 | 29055 ft | 304 kts | 172° |
| 2026-04-21 18:58 | -6.67563 | -79.28939 | 29056 ft | 304 kts | 172° |
| 2026-04-21 18:58 | -6.70942 | -79.28517 | 29051 ft | 304 kts | 172° |
| 2026-04-21 18:59 | -6.75151 | -79.27990 | 29047 ft | 305 kts | 172° |
| 2026-04-21 18:59 | -6.79363 | -79.27465 | 29047 ft | 305 kts | 172° |
| 2026-04-21 19:00 | -6.83609 | -79.26934 | 29049 ft | 305 kts | 172° |
| 2026-04-21 19:00 | -6.87817 | -79.26407 | 29044 ft | 305 kts | 172° |
| 2026-04-21 19:01 | -6.92062 | -79.25878 | 29037 ft | 305 kts | 171° |
| 2026-04-21 19:01 | -6.96281 | -79.25349 | 29042 ft | 305 kts | 171° |
| 2026-04-21 19:02 | -7.00555 | -79.24815 | 29039 ft | 305 kts | 171° |
| 2026-04-21 19:02 | -7.04784 | -79.24284 | 29037 ft | 306 kts | 171° |
| 2026-04-21 19:03 | -7.09016 | -79.23756 | 29041 ft | 306 kts | 171° |
| 2026-04-21 19:03 | -7.13256 | -79.23226 | 29039 ft | 307 kts | 171° |
| 2026-04-21 19:04 | -7.17495 | -79.22693 | 29033 ft | 307 kts | 171° |
| 2026-04-21 19:04 | -7.21784 | -79.22159 | 29027 ft | 307 kts | 172° |
| 2026-04-21 19:05 | -7.26039 | -79.21626 | 29025 ft | 307 kts | 172° |
| 2026-04-21 19:05 | -7.30308 | -79.21092 | 29025 ft | 307 kts | 171° |
| 2026-04-21 19:06 | -7.34657 | -79.20545 | 29021 ft | 308 kts | 172° |
| 2026-04-21 19:06 | -7.38924 | -79.20011 | 29023 ft | 308 kts | 172° |
| 2026-04-21 19:07 | -7.43168 | -79.19480 | 29018 ft | 307 kts | 172° |
| 2026-04-21 19:07 | -7.47423 | -79.18947 | 29016 ft | 308 kts | 172° |
| 2026-04-21 19:08 | -7.51707 | -79.18411 | 29013 ft | 308 kts | 172° |
| 2026-04-21 19:08 | -7.55964 | -79.17876 | 29014 ft | 308 kts | 172° |
| 2026-04-21 19:09 | -7.60244 | -79.17339 | 29011 ft | 308 kts | 172° |
| 2026-04-21 19:09 | -7.64512 | -79.16804 | 29008 ft | 308 kts | 172° |
| 2026-04-21 19:10 | -7.68773 | -79.16271 | 29007 ft | 308 kts | 172° |
| 2026-04-21 19:10 | -7.73006 | -79.15738 | 29007 ft | 309 kts | 172° |
| 2026-04-21 19:11 | -7.76613 | -79.15286 | 28997 ft | 309 kts | 173° |
| 2026-04-21 19:11 | -7.80886 | -79.14750 | 28990 ft | 309 kts | 173° |
| 2026-04-21 19:12 | -7.85151 | -79.14215 | 28987 ft | 309 kts | 173° |
| 2026-04-21 19:12 | -7.89453 | -79.13675 | 28980 ft | 309 kts | 173° |
| 2026-04-21 19:13 | -7.93728 | -79.13137 | 28979 ft | 309 kts | 173° |
| 2026-04-21 19:13 | -7.98022 | -79.12598 | 28976 ft | 309 kts | 173° |
| 2026-04-21 19:14 | -8.02280 | -79.12063 | 28975 ft | 309 kts | 173° |
| 2026-04-21 19:14 | -8.06548 | -79.11527 | 28975 ft | 309 kts | 173° |
| 2026-04-21 19:14 | -8.08657 | -79.11128 | 28971 ft | 309 kts | 162° |
| 2026-04-21 19:15 | -8.10633 | -79.10214 | 28972 ft | 309 kts | 150° |
| 2026-04-21 19:15 | -8.14399 | -79.08111 | 28974 ft | 309 kts | 151° |
| 2026-04-21 19:16 | -8.18164 | -79.06023 | 28977 ft | 308 kts | 151° |
| 2026-04-21 19:16 | -8.21914 | -79.03937 | 28983 ft | 308 kts | 151° |
| 2026-04-21 19:17 | -8.27542 | -79.00808 | 28987 ft | 307 kts | 151° |
| 2026-04-21 19:17 | -8.31292 | -78.98723 | 28992 ft | 307 kts | 151° |
| 2026-04-21 19:18 | -8.35037 | -78.96640 | 28997 ft | 307 kts | 151° |
| 2026-04-21 19:18 | -8.38777 | -78.94560 | 29004 ft | 306 kts | 151° |
| 2026-04-21 19:19 | -8.42517 | -78.92479 | 29004 ft | 306 kts | 151° |
| 2026-04-21 19:19 | -8.46250 | -78.90401 | 29006 ft | 306 kts | 151° |
| 2026-04-21 19:20 | -8.49982 | -78.88323 | 29001 ft | 306 kts | 151° |
| 2026-04-21 19:20 | -8.53703 | -78.86252 | 29001 ft | 306 kts | 151° |
| 2026-04-21 19:21 | -8.57431 | -78.84176 | 28999 ft | 305 kts | 151° |
| 2026-04-21 19:21 | -8.61136 | -78.82112 | 29000 ft | 305 kts | 151° |
| 2026-04-21 19:22 | -8.64871 | -78.80030 | 29002 ft | 305 kts | 151° |
| 2026-04-21 19:22 | -8.68610 | -78.77946 | 29000 ft | 305 kts | 151° |
| 2026-04-21 19:23 | -8.72324 | -78.75877 | 28998 ft | 305 kts | 151° |
| 2026-04-21 19:23 | -8.76012 | -78.73820 | 28999 ft | 305 kts | 151° |
| 2026-04-21 19:24 | -8.79727 | -78.71748 | 28999 ft | 304 kts | 151° |
| 2026-04-21 19:24 | -8.83466 | -78.69662 | 28996 ft | 305 kts | 151° |
| 2026-04-21 19:25 | -8.87134 | -78.67616 | 28995 ft | 305 kts | 151° |
| 2026-04-21 19:25 | -8.90902 | -78.65514 | 28993 ft | 305 kts | 151° |
| 2026-04-21 19:26 | -8.94632 | -78.63431 | 28986 ft | 306 kts | 151° |
| 2026-04-21 19:26 | -8.98335 | -78.61364 | 28983 ft | 306 kts | 151° |
| 2026-04-21 19:27 | -9.02067 | -78.59280 | 28979 ft | 306 kts | 151° |
| 2026-04-21 19:27 | -9.05804 | -78.57192 | 28973 ft | 307 kts | 151° |
| 2026-04-21 19:28 | -9.09556 | -78.55097 | 28972 ft | 307 kts | 151° |
| 2026-04-21 19:28 | -9.13330 | -78.52987 | 28974 ft | 308 kts | 151° |
| 2026-04-21 19:29 | -9.17148 | -78.51036 | 28974 ft | 307 kts | 155° |
| 2026-04-21 19:29 | -9.21004 | -78.49154 | 28972 ft | 308 kts | 154° |
| 2026-04-21 19:30 | -9.24862 | -78.47283 | 28976 ft | 308 kts | 155° |
| 2026-04-21 19:30 | -9.28768 | -78.45383 | 28983 ft | 309 kts | 154° |
| 2026-04-21 19:31 | -9.32645 | -78.43500 | 28996 ft | 309 kts | 155° |
| 2026-04-21 19:31 | -9.36529 | -78.41610 | 29009 ft | 309 kts | 154° |
| 2026-04-21 19:32 | -9.40412 | -78.39722 | 29024 ft | 310 kts | 155° |
| 2026-04-21 19:32 | -9.43634 | -78.38154 | 29039 ft | 310 kts | 155° |
| 2026-04-21 19:33 | -9.47541 | -78.36255 | 29060 ft | 311 kts | 155° |
| 2026-04-21 19:33 | -9.51451 | -78.34351 | 29069 ft | 311 kts | 155° |
| 2026-04-21 19:34 | -9.55374 | -78.32441 | 29074 ft | 311 kts | 155° |
| 2026-04-21 19:34 | -9.59276 | -78.30542 | 29082 ft | 311 kts | 155° |
| 2026-04-21 19:35 | -9.65127 | -78.27692 | 29090 ft | 311 kts | 155° |
| 2026-04-21 19:36 | -9.69026 | -78.25792 | 29092 ft | 311 kts | 155° |
| 2026-04-21 19:36 | -9.72927 | -78.23890 | 29098 ft | 311 kts | 155° |
| 2026-04-21 19:37 | -9.76832 | -78.21988 | 29095 ft | 311 kts | 155° |
| 2026-04-21 19:37 | -9.80733 | -78.20084 | 29094 ft | 311 kts | 155° |
| 2026-04-21 19:38 | -9.84668 | -78.18166 | 29094 ft | 311 kts | 155° |
| 2026-04-21 19:38 | -9.88555 | -78.16268 | 29092 ft | 311 kts | 155° |
| 2026-04-21 19:39 | -9.92459 | -78.14365 | 29097 ft | 311 kts | 155° |
| 2026-04-21 19:39 | -9.96382 | -78.12448 | 29094 ft | 311 kts | 155° |
| 2026-04-21 19:40 | -10.00276 | -78.10547 | 29093 ft | 311 kts | 155° |
| 2026-04-21 19:40 | -10.04148 | -78.08656 | 29091 ft | 311 kts | 155° |
| 2026-04-21 19:41 | -10.08048 | -78.06751 | 29086 ft | 311 kts | 155° |
| 2026-04-21 19:41 | -10.11957 | -78.04841 | 29087 ft | 312 kts | 155° |
| 2026-04-21 19:42 | -10.15869 | -78.02928 | 29085 ft | 312 kts | 155° |
| 2026-04-21 19:42 | -10.19779 | -78.01017 | 29080 ft | 312 kts | 155° |
| 2026-04-21 19:43 | -10.23703 | -77.99102 | 29080 ft | 312 kts | 155° |
| 2026-04-21 19:43 | -10.27620 | -77.97190 | 29076 ft | 313 kts | 155° |
| 2026-04-21 19:44 | -10.31547 | -77.95274 | 29075 ft | 313 kts | 155° |
| 2026-04-21 19:44 | -10.35491 | -77.93345 | 29074 ft | 313 kts | 155° |
| 2026-04-21 19:45 | -10.39425 | -77.91426 | 29069 ft | 313 kts | 155° |
| 2026-04-21 19:45 | -10.43353 | -77.89505 | 29067 ft | 314 kts | 155° |
| 2026-04-21 19:46 | -10.47285 | -77.87585 | 29060 ft | 314 kts | 155° |
| 2026-04-21 19:46 | -10.51218 | -77.85661 | 29061 ft | 314 kts | 155° |
| 2026-04-21 19:47 | -10.55151 | -77.83738 | 29051 ft | 313 kts | 155° |
| 2026-04-21 19:47 | -10.59122 | -77.81796 | 29048 ft | 314 kts | 155° |
| 2026-04-21 19:48 | -10.63028 | -77.79884 | 29043 ft | 314 kts | 155° |
| 2026-04-21 19:48 | -10.66969 | -77.77956 | 29035 ft | 315 kts | 155° |
| 2026-04-21 19:49 | -10.70921 | -77.76020 | 29028 ft | 315 kts | 155° |
| 2026-04-21 19:49 | -10.74866 | -77.74089 | 29018 ft | 315 kts | 155° |
| 2026-04-21 19:50 | -10.78172 | -77.72469 | 29016 ft | 315 kts | 155° |
| 2026-04-21 19:50 | -10.82758 | -77.70224 | 29013 ft | 315 kts | 155° |
| 2026-04-21 19:51 | -10.86728 | -77.68276 | 29010 ft | 315 kts | 155° |
| 2026-04-21 19:51 | -10.90645 | -77.66355 | 29007 ft | 314 kts | 155° |
| 2026-04-21 19:52 | -10.94585 | -77.64423 | 29005 ft | 315 kts | 155° |
| 2026-04-21 19:52 | -10.98559 | -77.62473 | 29004 ft | 315 kts | 155° |
| 2026-04-21 19:53 | -11.02506 | -77.60537 | 29005 ft | 315 kts | 155° |
| 2026-04-21 19:53 | -11.06452 | -77.58599 | 29001 ft | 315 kts | 155° |
| 2026-04-21 19:54 | -11.10402 | -77.56660 | 29004 ft | 315 kts | 155° |
| 2026-04-21 19:54 | -11.14348 | -77.54721 | 29002 ft | 315 kts | 155° |
| 2026-04-21 19:55 | -11.18293 | -77.52783 | 29006 ft | 315 kts | 155° |
| 2026-04-21 19:55 | -11.22238 | -77.50844 | 29006 ft | 314 kts | 155° |
| 2026-04-21 19:56 | -11.26094 | -77.48948 | 29003 ft | 314 kts | 155° |
| 2026-04-21 19:56 | -11.30059 | -77.46999 | 29003 ft | 314 kts | 155° |
| 2026-04-21 19:57 | -11.33991 | -77.45066 | 29006 ft | 314 kts | 155° |
| 2026-04-21 19:57 | -11.37921 | -77.43132 | 29003 ft | 314 kts | 155° |
| 2026-04-21 19:58 | -11.41854 | -77.41197 | 29005 ft | 313 kts | 155° |
| 2026-04-21 19:58 | -11.45116 | -77.39593 | 29007 ft | 313 kts | 155° |
| 2026-04-21 19:59 | -11.49686 | -77.37342 | 29003 ft | 313 kts | 155° |
| 2026-04-21 19:59 | -11.53612 | -77.35410 | 29000 ft | 313 kts | 155° |
| 2026-04-21 20:00 | -11.56897 | -77.33791 | 29001 ft | 313 kts | 155° |
| 2026-04-21 20:00 | -11.60790 | -77.31873 | 29005 ft | 312 kts | 155° |
| 2026-04-21 20:01 | -11.64728 | -77.29932 | 29003 ft | 312 kts | 155° |
| 2026-04-21 20:01 | -11.68642 | -77.28002 | 29003 ft | 312 kts | 155° |
| 2026-04-21 20:02 | -11.72009 | -77.26342 | 28999 ft | 312 kts | 155° |
| 2026-04-21 20:02 | -11.75909 | -77.24417 | 28999 ft | 312 kts | 155° |
| 2026-04-21 20:03 | -11.79826 | -77.22484 | 28998 ft | 312 kts | 155° |
| 2026-04-21 20:03 | -11.83738 | -77.20553 | 29002 ft | 312 kts | 155° |
| 2026-04-21 20:04 | -11.87650 | -77.18622 | 28995 ft | 312 kts | 155° |
| 2026-04-21 20:04 | -11.91559 | -77.16689 | 28994 ft | 312 kts | 155° |
| 2026-04-21 20:05 | -11.95469 | -77.14759 | 29000 ft | 312 kts | 155° |
| 2026-04-21 20:05 | -11.99388 | -77.12821 | 28971 ft | 312 kts | 155° |
| 2026-04-21 20:06 | -12.03309 | -77.10884 | 28972 ft | 313 kts | 155° |
| 2026-04-21 20:06 | -12.07185 | -77.08858 | 28974 ft | 313 kts | 154° |
| 2026-04-21 20:07 | -12.11077 | -77.06856 | 28975 ft | 313 kts | 154° |
| 2026-04-21 20:07 | -12.14975 | -77.04810 | 28980 ft | 313 kts | 154° |
| 2026-04-21 20:08 | -12.18847 | -77.02793 | 28982 ft | 313 kts | 154° |
| 2026-04-21 20:08 | -12.22740 | -77.00758 | 28985 ft | 313 kts | 154° |
| 2026-04-21 20:09 | -12.26597 | -76.98743 | 28992 ft | 313 kts | 154° |
| 2026-04-21 20:09 | -12.30473 | -76.96717 | 28997 ft | 313 kts | 154° |
| 2026-04-21 20:10 | -12.34351 | -76.94690 | 29002 ft | 313 kts | 154° |
| 2026-04-21 20:10 | -12.38253 | -76.92648 | 29001 ft | 313 kts | 154° |
| 2026-04-21 20:11 | -12.42102 | -76.90635 | 28998 ft | 313 kts | 154° |
| 2026-04-21 20:11 | -12.45994 | -76.88598 | 28997 ft | 312 kts | 154° |
| 2026-04-21 20:12 | -12.49793 | -76.86609 | 28997 ft | 312 kts | 154° |
| 2026-04-21 20:12 | -12.53669 | -76.84579 | 28997 ft | 312 kts | 154° |
| 2026-04-21 20:13 | -12.57546 | -76.82548 | 28998 ft | 313 kts | 154° |
| 2026-04-21 20:13 | -12.61420 | -76.80518 | 28998 ft | 313 kts | 154° |
| 2026-04-21 20:14 | -12.65327 | -76.78469 | 28996 ft | 313 kts | 154° |
| 2026-04-21 20:14 | -12.69206 | -76.76436 | 28996 ft | 313 kts | 154° |
| 2026-04-21 20:15 | -12.73061 | -76.74413 | 28994 ft | 313 kts | 154° |
| 2026-04-21 20:15 | -12.76936 | -76.72380 | 28995 ft | 313 kts | 154° |
| 2026-04-21 20:16 | -12.80810 | -76.70345 | 28998 ft | 313 kts | 154° |
| 2026-04-21 20:16 | -12.84646 | -76.68331 | 28995 ft | 313 kts | 154° |
| 2026-04-21 20:17 | -12.88522 | -76.66294 | 28995 ft | 313 kts | 154° |
| 2026-04-21 20:17 | -12.92400 | -76.64256 | 28996 ft | 313 kts | 154° |
| 2026-04-21 20:18 | -12.95620 | -76.62563 | 28992 ft | 313 kts | 154° |
| 2026-04-21 20:18 | -13.00150 | -76.60181 | 28995 ft | 313 kts | 154° |
| 2026-04-21 20:19 | -13.04022 | -76.58144 | 28987 ft | 313 kts | 154° |
| 2026-04-21 20:19 | -13.07894 | -76.56106 | 28987 ft | 313 kts | 154° |
| 2026-04-21 20:20 | -13.11769 | -76.54066 | 28986 ft | 313 kts | 154° |
| 2026-04-21 20:20 | -13.15643 | -76.52025 | 28986 ft | 313 kts | 153° |
| 2026-04-21 20:21 | -13.19519 | -76.49984 | 28985 ft | 313 kts | 153° |
| 2026-04-21 20:21 | -13.23393 | -76.47942 | 28983 ft | 313 kts | 154° |
| 2026-04-21 20:22 | -13.27270 | -76.45897 | 28984 ft | 313 kts | 154° |
| 2026-04-21 20:22 | -13.33082 | -76.42832 | 28983 ft | 313 kts | 153° |
| 2026-04-21 20:23 | -13.36968 | -76.40781 | 28982 ft | 313 kts | 153° |
| 2026-04-21 20:23 | -13.40843 | -76.38735 | 28984 ft | 314 kts | 153° |
| 2026-04-21 20:24 | -13.44730 | -76.36683 | 28979 ft | 314 kts | 153° |
| 2026-04-21 20:24 | -13.48615 | -76.34630 | 28976 ft | 314 kts | 153° |
| 2026-04-21 20:25 | -13.51845 | -76.32923 | 28975 ft | 314 kts | 153° |
| 2026-04-21 20:25 | -13.55731 | -76.30869 | 28978 ft | 314 kts | 153° |
| 2026-04-21 20:26 | -13.59618 | -76.28814 | 28976 ft | 314 kts | 153° |
| 2026-04-21 20:26 | -13.63501 | -76.26759 | 28974 ft | 314 kts | 153° |
| 2026-04-21 20:27 | -13.67421 | -76.24685 | 28972 ft | 314 kts | 153° |
| 2026-04-21 20:27 | -13.71312 | -76.22625 | 28972 ft | 314 kts | 153° |
| 2026-04-21 20:28 | -13.74925 | -76.20162 | 28966 ft | 316 kts | 134° |
| 2026-04-21 20:28 | -13.78021 | -76.16878 | 28972 ft | 316 kts | 134° |
| 2026-04-21 20:29 | -13.81092 | -76.13645 | 28973 ft | 316 kts | 134° |
| 2026-04-21 20:29 | -13.84164 | -76.10395 | 28975 ft | 316 kts | 134° |
| 2026-04-21 20:30 | -13.87236 | -76.07152 | 28976 ft | 316 kts | 134° |
| 2026-04-21 20:30 | -13.90310 | -76.03902 | 28981 ft | 317 kts | 134° |
| 2026-04-21 20:31 | -13.93384 | -76.00650 | 28980 ft | 317 kts | 134° |
| 2026-04-21 20:31 | -13.96476 | -75.97381 | 28982 ft | 317 kts | 134° |
| 2026-04-21 20:32 | -13.99554 | -75.94121 | 28987 ft | 317 kts | 134° |
| 2026-04-21 20:32 | -14.02653 | -75.90841 | 28988 ft | 317 kts | 134° |
| 2026-04-21 20:33 | -14.05708 | -75.87605 | 28989 ft | 317 kts | 134° |
| 2026-04-21 20:33 | -14.08817 | -75.84310 | 28991 ft | 318 kts | 134° |
| 2026-04-21 20:34 | -14.11900 | -75.81043 | 28999 ft | 318 kts | 134° |
| 2026-04-21 20:34 | -14.14992 | -75.77764 | 29002 ft | 318 kts | 134° |
| 2026-04-21 20:35 | -14.18081 | -75.74487 | 29004 ft | 318 kts | 134° |
| 2026-04-21 20:35 | -14.21167 | -75.71211 | 29011 ft | 319 kts | 134° |
| 2026-04-21 20:36 | -14.24243 | -75.67944 | 29012 ft | 319 kts | 134° |
| 2026-04-21 20:36 | -14.27354 | -75.64639 | 29018 ft | 319 kts | 134° |
| 2026-04-21 20:37 | -14.30445 | -75.61354 | 29018 ft | 319 kts | 134° |
| 2026-04-21 20:37 | -14.33517 | -75.58088 | 29020 ft | 319 kts | 134° |
| 2026-04-21 20:38 | -14.36611 | -75.54796 | 29026 ft | 319 kts | 134° |
| 2026-04-21 20:38 | -14.39722 | -75.51485 | 29028 ft | 319 kts | 134° |
| 2026-04-21 20:39 | -14.42814 | -75.48195 | 29025 ft | 319 kts | 134° |
| 2026-04-21 20:39 | -14.45867 | -75.44942 | 29024 ft | 319 kts | 134° |
| 2026-04-21 20:40 | -14.48971 | -75.41635 | 29054 ft | 320 kts | 134° |
| 2026-04-21 20:40 | -14.52067 | -75.38335 | 29053 ft | 320 kts | 134° |
| 2026-04-21 20:41 | -14.55180 | -75.35015 | 29055 ft | 319 kts | 134° |
| 2026-04-21 20:41 | -14.58333 | -75.31652 | 29058 ft | 319 kts | 134° |
| 2026-04-21 20:42 | -14.61438 | -75.28338 | 29057 ft | 319 kts | 134° |
| 2026-04-21 20:42 | -14.64519 | -75.25048 | 29057 ft | 319 kts | 134° |
| 2026-04-21 20:43 | -14.67604 | -75.21753 | 29060 ft | 319 kts | 134° |
| 2026-04-21 20:43 | -14.70688 | -75.18456 | 29058 ft | 318 kts | 134° |
| 2026-04-21 20:44 | -14.73764 | -75.15167 | 29060 ft | 318 kts | 134° |
| 2026-04-21 20:44 | -14.76321 | -75.12432 | 29061 ft | 318 kts | 134° |
| 2026-04-21 20:45 | -14.79411 | -75.09126 | 29064 ft | 317 kts | 134° |
| 2026-04-21 20:45 | -14.82461 | -75.05861 | 29047 ft | 317 kts | 134° |
| 2026-04-21 20:46 | -14.85528 | -75.02576 | 29053 ft | 317 kts | 134° |
| 2026-04-21 20:46 | -14.88604 | -74.99281 | 29061 ft | 318 kts | 134° |
| 2026-04-21 20:47 | -14.91723 | -74.96040 | 29062 ft | 317 kts | 135° |
| 2026-04-21 20:47 | -14.94852 | -74.92765 | 29068 ft | 318 kts | 135° |
| 2026-04-21 20:48 | -14.97969 | -74.89564 | 29078 ft | 318 kts | 135° |
| 2026-04-21 20:48 | -15.01102 | -74.86323 | 29080 ft | 319 kts | 135° |
| 2026-04-21 20:49 | -15.04240 | -74.83083 | 29084 ft | 319 kts | 135° |
| 2026-04-21 20:49 | -15.07406 | -74.79810 | 29091 ft | 319 kts | 135° |
| 2026-04-21 20:50 | -15.10543 | -74.76567 | 29095 ft | 318 kts | 135° |
| 2026-04-21 20:50 | -15.13677 | -74.73322 | 29095 ft | 319 kts | 135° |
| 2026-04-21 20:51 | -15.16840 | -74.70051 | 29096 ft | 319 kts | 135° |
| 2026-04-21 20:51 | -15.19973 | -74.66806 | 29101 ft | 318 kts | 135° |
| 2026-04-21 20:52 | -15.23112 | -74.63554 | 29098 ft | 318 kts | 135° |
| 2026-04-21 20:52 | -15.26240 | -74.60312 | 29095 ft | 318 kts | 135° |
| 2026-04-21 20:53 | -15.29360 | -74.57078 | 29101 ft | 316 kts | 135° |
| 2026-04-21 20:53 | -15.32481 | -74.53840 | 29097 ft | 317 kts | 135° |
| 2026-04-21 20:54 | -15.35604 | -74.50600 | 29097 ft | 318 kts | 135° |
| 2026-04-21 20:54 | -15.38723 | -74.47361 | 29097 ft | 318 kts | 135° |
| 2026-04-21 20:55 | -15.41847 | -74.44116 | 29098 ft | 317 kts | 135° |
| 2026-04-21 20:55 | -15.44985 | -74.40854 | 29098 ft | 317 kts | 135° |
| 2026-04-21 20:56 | -15.48103 | -74.37614 | 29101 ft | 317 kts | 135° |
| 2026-04-21 20:56 | -15.51229 | -74.34361 | 29102 ft | 318 kts | 135° |
| 2026-04-21 20:57 | -15.54357 | -74.31108 | 29101 ft | 318 kts | 135° |
| 2026-04-21 20:57 | -15.57502 | -74.27832 | 29097 ft | 318 kts | 135° |
| 2026-04-21 20:58 | -15.60618 | -74.24586 | 29104 ft | 317 kts | 135° |
| 2026-04-21 20:58 | -15.63756 | -74.21316 | 29105 ft | 317 kts | 135° |
| 2026-04-21 20:59 | -15.66869 | -74.18070 | 29106 ft | 317 kts | 135° |
| 2026-04-21 20:59 | -15.69984 | -74.14822 | 29100 ft | 317 kts | 135° |
| 2026-04-21 21:00 | -15.73084 | -74.11586 | 29101 ft | 317 kts | 135° |
| 2026-04-21 21:00 | -15.76199 | -74.08335 | 29095 ft | 318 kts | 135° |
| 2026-04-21 21:01 | -15.79316 | -74.05079 | 29092 ft | 318 kts | 135° |
| 2026-04-21 21:01 | -15.82436 | -74.01819 | 29089 ft | 318 kts | 135° |
| 2026-04-21 21:02 | -15.85561 | -73.98552 | 29082 ft | 318 kts | 134° |
| 2026-04-21 21:02 | -15.88685 | -73.95286 | 29077 ft | 318 kts | 135° |
| 2026-04-21 21:03 | -15.91803 | -73.92021 | 29073 ft | 318 kts | 134° |
| 2026-04-21 21:03 | -15.94921 | -73.88757 | 29066 ft | 318 kts | 134° |
| 2026-04-21 21:04 | -15.98038 | -73.85494 | 29068 ft | 317 kts | 134° |
| 2026-04-21 21:04 | -16.01149 | -73.82233 | 29068 ft | 317 kts | 134° |
| 2026-04-21 21:05 | -16.04256 | -73.78976 | 29075 ft | 317 kts | 134° |
| 2026-04-21 21:05 | -16.07363 | -73.75716 | 29072 ft | 317 kts | 135° |
| 2026-04-21 21:06 | -16.10473 | -73.72454 | 29070 ft | 317 kts | 134° |
| 2026-04-21 21:06 | -16.13560 | -73.69212 | 29071 ft | 316 kts | 134° |
| 2026-04-21 21:07 | -16.16676 | -73.65940 | 29070 ft | 316 kts | 134° |
| 2026-04-21 21:07 | -16.19252 | -73.63232 | 29070 ft | 316 kts | 134° |
| 2026-04-21 21:08 | -16.22350 | -73.59976 | 29066 ft | 316 kts | 134° |
| 2026-04-21 21:08 | -16.25237 | -73.56541 | 29062 ft | 316 kts | 123° |
| 2026-04-21 21:09 | -16.27715 | -73.52766 | 29065 ft | 316 kts | 124° |
| 2026-04-21 21:09 | -16.30211 | -73.48992 | 29062 ft | 316 kts | 123° |
| 2026-04-21 21:10 | -16.32696 | -73.45217 | 29069 ft | 316 kts | 124° |
| 2026-04-21 21:10 | -16.35182 | -73.41445 | 29069 ft | 316 kts | 123° |
| 2026-04-21 21:11 | -16.37648 | -73.37698 | 29074 ft | 316 kts | 123° |
| 2026-04-21 21:11 | -16.40129 | -73.33927 | 29072 ft | 316 kts | 123° |
| 2026-04-21 21:12 | -16.42629 | -73.30127 | 29079 ft | 316 kts | 123° |
| 2026-04-21 21:12 | -16.45110 | -73.26352 | 29078 ft | 316 kts | 123° |
| 2026-04-21 21:13 | -16.47595 | -73.22570 | 29082 ft | 316 kts | 123° |
| 2026-04-21 21:13 | -16.50079 | -73.18788 | 29082 ft | 316 kts | 123° |
| 2026-04-21 21:14 | -16.52558 | -73.15010 | 29085 ft | 316 kts | 123° |
| 2026-04-21 21:14 | -16.55039 | -73.11228 | 29088 ft | 316 kts | 123° |
| 2026-04-21 21:15 | -16.57522 | -73.07441 | 29084 ft | 316 kts | 123° |
| 2026-04-21 21:15 | -16.60002 | -73.03655 | 29087 ft | 316 kts | 123° |
| 2026-04-21 21:16 | -16.62487 | -72.99862 | 29092 ft | 316 kts | 123° |
| 2026-04-21 21:16 | -16.64970 | -72.96068 | 29093 ft | 316 kts | 123° |
| 2026-04-21 21:17 | -16.67455 | -72.92268 | 29086 ft | 316 kts | 123° |
| 2026-04-21 21:17 | -16.69924 | -72.88492 | 29087 ft | 317 kts | 123° |
| 2026-04-21 21:18 | -16.72407 | -72.84692 | 29093 ft | 317 kts | 123° |
| 2026-04-21 21:18 | -16.74890 | -72.80890 | 29092 ft | 317 kts | 123° |
| 2026-04-21 21:19 | -16.77376 | -72.77083 | 29099 ft | 317 kts | 123° |
| 2026-04-21 21:19 | -16.79860 | -72.73275 | 29095 ft | 317 kts | 123° |
| 2026-04-21 21:20 | -16.82340 | -72.69471 | 29094 ft | 317 kts | 123° |
| 2026-04-21 21:20 | -16.84825 | -72.65658 | 29092 ft | 317 kts | 123° |
| 2026-04-21 21:21 | -16.87304 | -72.61852 | 29086 ft | 317 kts | 123° |
| 2026-04-21 21:21 | -16.89783 | -72.58045 | 29075 ft | 317 kts | 123° |
| 2026-04-21 21:22 | -16.92262 | -72.54234 | 29071 ft | 317 kts | 123° |
| 2026-04-21 21:22 | -16.94739 | -72.50424 | 29063 ft | 317 kts | 123° |
| 2026-04-21 21:23 | -16.97216 | -72.46613 | 29058 ft | 317 kts | 123° |
| 2026-04-21 21:23 | -16.99710 | -72.42775 | 29054 ft | 317 kts | 123° |
| 2026-04-21 21:24 | -17.02168 | -72.38987 | 29051 ft | 317 kts | 122° |
| 2026-04-21 21:24 | -17.04661 | -72.35146 | 29048 ft | 317 kts | 122° |
| 2026-04-21 21:25 | -17.07138 | -72.31326 | 29041 ft | 317 kts | 122° |
| 2026-04-21 21:25 | -17.09614 | -72.27505 | 29041 ft | 317 kts | 122° |
| 2026-04-21 21:26 | -17.12073 | -72.23709 | 29044 ft | 317 kts | 122° |
| 2026-04-21 21:26 | -17.14548 | -72.19887 | 29041 ft | 317 kts | 122° |
| 2026-04-21 21:27 | -17.17046 | -72.16026 | 29039 ft | 317 kts | 122° |
| 2026-04-21 21:27 | -17.19506 | -72.12223 | 29040 ft | 317 kts | 122° |
| 2026-04-21 21:28 | -17.21981 | -72.08393 | 29039 ft | 317 kts | 122° |
| 2026-04-21 21:29 | -17.25709 | -72.02623 | 29042 ft | 318 kts | 122° |
| 2026-04-21 21:29 | -17.28182 | -71.98792 | 29043 ft | 318 kts | 122° |
| 2026-04-21 21:30 | -17.30654 | -71.94961 | 29040 ft | 318 kts | 122° |
| 2026-04-21 21:30 | -17.33128 | -71.91124 | 29040 ft | 318 kts | 122° |
| 2026-04-21 21:31 | -17.35603 | -71.87284 | 29039 ft | 318 kts | 122° |
| 2026-04-21 21:31 | -17.38079 | -71.83440 | 29034 ft | 318 kts | 122° |
| 2026-04-21 21:32 | -17.40537 | -71.79622 | 29035 ft | 318 kts | 122° |
| 2026-04-21 21:32 | -17.43013 | -71.75774 | 29036 ft | 319 kts | 122° |
| 2026-04-21 21:33 | -17.45487 | -71.71926 | 29034 ft | 319 kts | 122° |
| 2026-04-21 21:33 | -17.47965 | -71.68070 | 29036 ft | 319 kts | 122° |
| 2026-04-21 21:34 | -17.50446 | -71.64208 | 29035 ft | 319 kts | 122° |
| 2026-04-21 21:34 | -17.52922 | -71.60350 | 29036 ft | 319 kts | 122° |
| 2026-04-21 21:35 | -17.55400 | -71.56489 | 29022 ft | 319 kts | 122° |
| 2026-04-21 21:35 | -17.57880 | -71.52620 | 29027 ft | 320 kts | 122° |
| 2026-04-21 21:36 | -17.60359 | -71.48752 | 29029 ft | 320 kts | 122° |
| 2026-04-21 21:36 | -17.62836 | -71.44883 | 29029 ft | 320 kts | 122° |
| 2026-04-21 21:37 | -17.65314 | -71.41011 | 29027 ft | 320 kts | 122° |
| 2026-04-21 21:37 | -17.67795 | -71.37132 | 29013 ft | 320 kts | 122° |
| 2026-04-21 21:38 | -17.69892 | -71.33935 | 29017 ft | 321 kts | 125° |
| 2026-04-21 21:38 | -17.72479 | -71.30125 | 29012 ft | 320 kts | 124° |
| 2026-04-21 21:39 | -17.75082 | -71.26295 | 28916 ft | 323 kts | 124° |
| 2026-04-21 21:39 | -17.76354 | -71.24427 | 28409 ft | 338 kts | 124° |
| 2026-04-21 21:39 | -17.77749 | -71.22376 | 27893 ft | 351 kts | 124° |
| 2026-04-21 21:39 | -17.79133 | -71.20338 | 27401 ft | 353 kts | 125° |
| 2026-04-21 21:40 | -17.80672 | -71.18070 | 26859 ft | 354 kts | 125° |
| 2026-04-21 21:40 | -17.82099 | -71.15965 | 26366 ft | 354 kts | 125° |
| 2026-04-21 21:40 | -17.83532 | -71.13857 | 25878 ft | 355 kts | 125° |
| 2026-04-21 21:40 | -17.84963 | -71.11748 | 25400 ft | 355 kts | 125° |
| 2026-04-21 21:41 | -17.86397 | -71.09634 | 24934 ft | 356 kts | 125° |
| 2026-04-21 21:41 | -17.87832 | -71.07517 | 24473 ft | 356 kts | 126° |
| 2026-04-21 21:41 | -17.89266 | -71.05400 | 24019 ft | 356 kts | 126° |
| 2026-04-21 21:41 | -17.90700 | -71.03284 | 23563 ft | 356 kts | 126° |
| 2026-04-21 21:42 | -17.92137 | -71.01164 | 23018 ft | 356 kts | 126° |
| 2026-04-21 21:42 | -17.93575 | -70.99042 | 22490 ft | 356 kts | 126° |
| 2026-04-21 21:42 | -17.95011 | -70.96920 | 21965 ft | 356 kts | 125° |
| 2026-04-21 21:42 | -17.96447 | -70.94799 | 21454 ft | 356 kts | 125° |
| 2026-04-21 21:43 | -17.97850 | -70.92739 | 20984 ft | 350 kts | 126° |
| 2026-04-21 21:43 | -17.99282 | -70.90638 | 20498 ft | 343 kts | 125° |
| 2026-04-21 21:43 | -18.00642 | -70.88603 | 20031 ft | 337 kts | 124° |
| 2026-04-21 21:43 | -18.01987 | -70.86600 | 19575 ft | 333 kts | 125° |
| 2026-04-21 21:44 | -18.03321 | -70.84631 | 19104 ft | 328 kts | 124° |
| 2026-04-21 21:44 | -18.04635 | -70.82689 | 18667 ft | 325 kts | 124° |
| 2026-04-21 21:44 | -18.05936 | -70.80758 | 18209 ft | 321 kts | 124° |
| 2026-04-21 21:44 | -18.07221 | -70.78852 | 17698 ft | 318 kts | 124° |
| 2026-04-21 21:45 | -18.08511 | -70.76941 | 17187 ft | 314 kts | 124° |
| 2026-04-21 21:45 | -18.09769 | -70.75077 | 16694 ft | 311 kts | 125° |
| 2026-04-21 21:45 | -18.11010 | -70.73238 | 16205 ft | 307 kts | 125° |
| 2026-04-21 21:45 | -18.12151 | -70.71544 | 15760 ft | 303 kts | 125° |
| 2026-04-21 21:46 | -18.13359 | -70.69749 | 15288 ft | 298 kts | 126° |
| 2026-04-21 21:46 | -18.14551 | -70.67980 | 14826 ft | 294 kts | 126° |
| 2026-04-21 21:46 | -18.15730 | -70.66233 | 14364 ft | 290 kts | 126° |
| 2026-04-21 21:46 | -18.16876 | -70.64532 | 13920 ft | 286 kts | 126° |
| 2026-04-21 21:47 | -18.18021 | -70.62830 | 13425 ft | 283 kts | 126° |
| 2026-04-21 21:47 | -18.19151 | -70.61151 | 12916 ft | 280 kts | 127° |
| 2026-04-21 21:47 | -18.20272 | -70.59484 | 12422 ft | 277 kts | 127° |
| 2026-04-21 21:47 | -18.21380 | -70.57837 | 11936 ft | 275 kts | 126° |
| 2026-04-21 21:48 | -18.22471 | -70.56213 | 11460 ft | 273 kts | 127° |
| 2026-04-21 21:48 | -18.23564 | -70.54592 | 10990 ft | 270 kts | 126° |
| 2026-04-21 21:48 | -18.24644 | -70.52981 | 10523 ft | 268 kts | 126° |
| 2026-04-21 21:48 | -18.25718 | -70.51385 | 10062 ft | 266 kts | 127° |
| 2026-04-21 21:49 | -18.26787 | -70.49794 | 9570 ft | 265 kts | 126° |
| 2026-04-21 21:49 | -18.27859 | -70.48197 | 9065 ft | 263 kts | 126° |
| 2026-04-21 21:49 | -18.28902 | -70.46643 | 8576 ft | 261 kts | 126° |
| 2026-04-21 21:49 | -18.29946 | -70.45089 | 8092 ft | 259 kts | 126° |
| 2026-04-21 21:50 | -18.30986 | -70.43538 | 7607 ft | 258 kts | 126° |
| 2026-04-21 21:50 | -18.32018 | -70.42001 | 7155 ft | 256 kts | 126° |
| 2026-04-21 21:50 | -18.33050 | -70.40461 | 6773 ft | 252 kts | 126° |
| 2026-04-21 21:50 | -18.34032 | -70.38995 | 6411 ft | 250 kts | 125° |
| 2026-04-21 21:51 | -18.35018 | -70.37526 | 6018 ft | 248 kts | 125° |
| 2026-04-21 21:51 | -18.36012 | -70.36041 | 5627 ft | 247 kts | 125° |
| 2026-04-21 21:51 | -18.37002 | -70.34576 | 5238 ft | 245 kts | 127° |
| 2026-04-21 21:51 | -18.38280 | -70.33426 | 4852 ft | 244 kts | 154° |
| 2026-04-21 21:52 | -18.39926 | -70.33130 | 4455 ft | 242 kts | 186° |
| 2026-04-21 21:52 | -18.41521 | -70.33645 | 4059 ft | 239 kts | 203° |
| 2026-04-21 21:52 | -18.43064 | -70.34342 | 3669 ft | 237 kts | 202° |
| 2026-04-21 21:52 | -18.44575 | -70.35002 | 3283 ft | 233 kts | 209° |
| 2026-04-21 21:53 | -18.45704 | -70.36186 | 2885 ft | 230 kts | 241° |
| 2026-04-21 21:53 | -18.46060 | -70.37797 | 2493 ft | 222 kts | 271° |
| 2026-04-21 21:53 | -18.45692 | -70.39299 | 2098 ft | 208 kts | 296° |
| 2026-04-21 21:53 | -18.44774 | -70.40433 | 1694 ft | 201 kts | 321° |
| 2026-04-21 21:54 | -18.43517 | -70.41026 | 1296 ft | 199 kts | 348° |
| 2026-04-21 21:54 | -18.42174 | -70.40893 | 1009 ft | 192 kts | 25° |
| 2026-04-21 21:54 | -18.41235 | -70.39996 | 1000 ft | 178 kts | 53° |
| 2026-04-21 21:54 | -18.40426 | -70.39040 | 994 ft | 172 kts | 40° |
| 2026-04-21 21:55 | -18.39485 | -70.38275 | 989 ft | 170 kts | 37° |
| 2026-04-21 21:55 | -18.38618 | -70.37580 | 993 ft | 172 kts | 38° |
| 2026-04-21 21:55 | -18.37687 | -70.36859 | 971 ft | 163 kts | 32° |
| 2026-04-21 21:55 | -18.36699 | -70.36366 | 855 ft | 157 kts | 20° |
| 2026-04-21 21:56 | -18.35643 | -70.36060 | 815 ft | 147 kts | 11° |
| 2026-04-21 21:56 | -18.34672 | -70.36105 | 839 ft | 138 kts | 346° |
| 2026-04-21 21:56 | -18.33735 | -70.36297 | 828 ft | 136 kts | 353° |
| 2026-04-21 21:56 | -18.32834 | -70.36124 | 855 ft | 134 kts | 28° |
| 2026-04-21 21:57 | -18.32362 | -70.35349 | 869 ft | 127 kts | 91° |
| 2026-04-21 21:57 | -18.32347 | -70.34730 | 874 ft | 129 kts | 81° |
| 2026-04-21 21:57 | -18.32200 | -70.33841 | 907 ft | 112 kts | 83° |
| 2026-04-21 21:57 | -18.32452 | -70.33165 | 706 ft | 99 kts | 155° |
| 2026-04-21 21:58 | -18.33094 | -70.33224 | 457 ft | 97 kts | 201° |
| 2026-04-21 21:58 | -18.33714 | -70.33455 | 250 ft | 92 kts | 200° |
| 2026-04-21 21:58 | -18.34271 | -70.33667 | 163 ft | 72 kts | 199° |
| 2026-04-21 21:58 | -18.34657 | -70.33807 | 149 ft | 48 kts | 199° |
| 2026-04-21 21:59 | -18.34887 | -70.33889 | 148 ft | 21 kts | 197° |
| 2026-04-21 21:59 | -18.34955 | -70.33849 | 148 ft | 8 kts | 108° |
| 2026-04-21 21:59 | -18.34967 | -70.33811 | 149 ft | 4 kts | 107° |
| 2026-04-21 21:59 | -18.34976 | -70.33780 | 150 ft | 6 kts | 109° |
| 2026-04-21 22:00 | -18.34988 | -70.33719 | 150 ft | 10 kts | 86° |
| 2026-04-21 22:00 | -18.34994 | -70.33689 | 150 ft | 0 kts | 111° |
| 2026-04-21 22:00 | -18.34998 | -70.33677 | 150 ft | 5 kts | 109° |
| 2026-04-21 22:00 | -18.35001 | -70.33669 | 150 ft | 0 kts | 108° |